NDF6026 LSZR-LOWI
Flight info
| Callsign | NDF6026 |
|---|---|
| Flight time | 0h 35m |
| Altitude | 17000 |
| Route | BEMKI1M BEMKI DCT XEBIX XEBIX1B |
| Aircraft | B738/M-SDE2E3FGHIRWXY/LB1 |
Departure
| Time | 2026-05-07 11:34 |
|---|---|
| Airport | Sankt Gallen Altenrhein Airport (LSZR) |
Arrival
| Time | 2026-05-07 12:10 |
|---|---|
| Airport | Innsbruck Airport (LOWI) |
| Time | Latitude | Longitude | Altitude | Speed | Heading |
|---|---|---|---|---|---|
| 2026-05-07 10:48 | 47.48698 | 9.56160 | 1318 ft | 0 kts | 14° |
| 2026-05-07 11:26 | 47.48689 | 9.56156 | 1318 ft | 2 kts | 14° |
| 2026-05-07 11:27 | 47.48674 | 9.56150 | 1318 ft | 2 kts | 14° |
| 2026-05-07 11:27 | 47.48665 | 9.56147 | 1318 ft | 2 kts | 10° |
| 2026-05-07 11:27 | 47.48652 | 9.56152 | 1318 ft | 2 kts | 310° |
| 2026-05-07 11:27 | 47.48647 | 9.56164 | 1318 ft | 0 kts | 279° |
| 2026-05-07 11:28 | 47.48647 | 9.56175 | 1318 ft | 0 kts | 278° |
| 2026-05-07 11:29 | 47.48647 | 9.56172 | 1318 ft | 1 kts | 278° |
| 2026-05-07 11:29 | 47.48649 | 9.56153 | 1318 ft | 3 kts | 278° |
| 2026-05-07 11:30 | 47.48657 | 9.56075 | 1318 ft | 11 kts | 278° |
| 2026-05-07 11:30 | 47.48669 | 9.55961 | 1318 ft | 10 kts | 278° |
| 2026-05-07 11:30 | 47.48682 | 9.55832 | 1318 ft | 15 kts | 278° |
| 2026-05-07 11:30 | 47.48700 | 9.55667 | 1315 ft | 17 kts | 279° |
| 2026-05-07 11:31 | 47.48715 | 9.55505 | 1315 ft | 14 kts | 275° |
| 2026-05-07 11:31 | 47.48725 | 9.55374 | 1314 ft | 7 kts | 264° |
| 2026-05-07 11:31 | 47.48705 | 9.55348 | 1314 ft | 3 kts | 193° |
| 2026-05-07 11:31 | 47.48683 | 9.55342 | 1315 ft | 2 kts | 190° |
| 2026-05-07 11:32 | 47.48592 | 9.55302 | 1314 ft | 8 kts | 246° |
| 2026-05-07 11:32 | 47.48599 | 9.55168 | 1312 ft | 18 kts | 278° |
| 2026-05-07 11:32 | 47.48610 | 9.55011 | 1312 ft | 8 kts | 252° |
| 2026-05-07 11:33 | 47.48613 | 9.54971 | 1311 ft | 1 kts | 10° |
| 2026-05-07 11:33 | 47.48615 | 9.54988 | 1311 ft | 0 kts | 93° |
| 2026-05-07 11:33 | 47.48615 | 9.54990 | 1311 ft | 6 kts | 93° |
| 2026-05-07 11:33 | 47.48565 | 9.55502 | 1315 ft | 92 kts | 98° |
| 2026-05-07 11:34 | 47.48426 | 9.56809 | 1325 ft | 161 kts | 97° |
| 2026-05-07 11:34 | 47.48256 | 9.58448 | 2078 ft | 158 kts | 97° |
| 2026-05-07 11:34 | 47.48221 | 9.60059 | 2784 ft | 168 kts | 73° |
| 2026-05-07 11:34 | 47.48820 | 9.61508 | 3461 ft | 170 kts | 41° |
| 2026-05-07 11:35 | 47.49771 | 9.62502 | 4239 ft | 168 kts | 24° |
| 2026-05-07 11:35 | 47.50883 | 9.62878 | 4931 ft | 169 kts | 354° |
| 2026-05-07 11:35 | 47.51984 | 9.62395 | 5633 ft | 170 kts | 330° |
| 2026-05-07 11:35 | 47.52900 | 9.61307 | 6374 ft | 170 kts | 306° |
| 2026-05-07 11:36 | 47.53373 | 9.59733 | 7077 ft | 172 kts | 279° |
| 2026-05-07 11:36 | 47.53344 | 9.57984 | 7736 ft | 176 kts | 261° |
| 2026-05-07 11:36 | 47.53083 | 9.56228 | 8407 ft | 178 kts | 259° |
| 2026-05-07 11:36 | 47.52827 | 9.54461 | 9086 ft | 179 kts | 259° |
| 2026-05-07 11:37 | 47.52580 | 9.52654 | 9764 ft | 179 kts | 258° |
| 2026-05-07 11:37 | 47.52340 | 9.50881 | 10412 ft | 180 kts | 258° |
| 2026-05-07 11:37 | 47.52097 | 9.49092 | 11049 ft | 180 kts | 258° |
| 2026-05-07 11:37 | 47.51850 | 9.47275 | 11680 ft | 181 kts | 258° |
| 2026-05-07 11:38 | 47.51601 | 9.45444 | 12286 ft | 183 kts | 258° |
| 2026-05-07 11:38 | 47.51353 | 9.43614 | 12884 ft | 184 kts | 259° |
| 2026-05-07 11:38 | 47.51105 | 9.41777 | 13484 ft | 185 kts | 259° |
| 2026-05-07 11:38 | 47.50852 | 9.39906 | 14050 ft | 187 kts | 259° |
| 2026-05-07 11:39 | 47.50629 | 9.38007 | 14614 ft | 189 kts | 264° |
| 2026-05-07 11:39 | 47.50657 | 9.36037 | 15060 ft | 197 kts | 278° |
| 2026-05-07 11:39 | 47.50930 | 9.33979 | 15410 ft | 210 kts | 281° |
| 2026-05-07 11:39 | 47.51341 | 9.31870 | 15856 ft | 219 kts | 297° |
| 2026-05-07 11:40 | 47.52324 | 9.30191 | 16415 ft | 223 kts | 323° |
| 2026-05-07 11:40 | 47.53742 | 9.29179 | 16947 ft | 228 kts | 340° |
| 2026-05-07 11:40 | 47.55339 | 9.28851 | 17036 ft | 240 kts | 4° |
| 2026-05-07 11:40 | 47.56886 | 9.29715 | 17025 ft | 241 kts | 35° |
| 2026-05-07 11:41 | 47.58034 | 9.31534 | 17030 ft | 241 kts | 55° |
| 2026-05-07 11:41 | 47.58725 | 9.33801 | 17021 ft | 244 kts | 80° |
| 2026-05-07 11:41 | 47.58738 | 9.36296 | 17036 ft | 245 kts | 97° |
| 2026-05-07 11:41 | 47.58498 | 9.38817 | 17027 ft | 246 kts | 98° |
| 2026-05-07 11:42 | 47.58287 | 9.41300 | 17027 ft | 245 kts | 94° |
| 2026-05-07 11:42 | 47.58307 | 9.43850 | 17038 ft | 251 kts | 83° |
| 2026-05-07 11:42 | 47.58582 | 9.46519 | 17021 ft | 276 kts | 78° |
| 2026-05-07 11:42 | 47.58945 | 9.49459 | 17049 ft | 301 kts | 79° |
| 2026-05-07 11:43 | 47.59311 | 9.52637 | 17045 ft | 326 kts | 80° |
| 2026-05-07 11:43 | 47.59680 | 9.56090 | 17041 ft | 351 kts | 80° |
| 2026-05-07 11:43 | 47.60059 | 9.59734 | 17038 ft | 373 kts | 81° |
| 2026-05-07 11:43 | 47.60498 | 9.63620 | 17039 ft | 394 kts | 77° |
| 2026-05-07 11:44 | 47.61145 | 9.67619 | 17031 ft | 409 kts | 74° |
| 2026-05-07 11:44 | 47.61948 | 9.71681 | 17033 ft | 413 kts | 72° |
| 2026-05-07 11:44 | 47.62808 | 9.75736 | 17029 ft | 413 kts | 72° |
| 2026-05-07 11:44 | 47.63679 | 9.79816 | 17031 ft | 412 kts | 72° |
| 2026-05-07 11:45 | 47.64528 | 9.83859 | 17032 ft | 412 kts | 72° |
| 2026-05-07 11:45 | 47.65362 | 9.87918 | 17027 ft | 413 kts | 73° |
| 2026-05-07 11:45 | 47.66037 | 9.92061 | 17033 ft | 414 kts | 80° |
| 2026-05-07 11:45 | 47.66115 | 9.96345 | 17044 ft | 414 kts | 98° |
| 2026-05-07 11:46 | 47.65323 | 10.00432 | 17034 ft | 413 kts | 112° |
| 2026-05-07 11:46 | 47.64171 | 10.04327 | 17042 ft | 413 kts | 115° |
| 2026-05-07 11:46 | 47.62954 | 10.08154 | 17020 ft | 413 kts | 116° |
| 2026-05-07 11:46 | 47.61732 | 10.11955 | 17037 ft | 412 kts | 116° |
| 2026-05-07 11:47 | 47.60512 | 10.15781 | 17020 ft | 413 kts | 116° |
| 2026-05-07 11:47 | 47.59282 | 10.19694 | 17020 ft | 412 kts | 115° |
| 2026-05-07 11:47 | 47.58084 | 10.23552 | 17013 ft | 413 kts | 115° |
| 2026-05-07 11:47 | 47.56866 | 10.27391 | 17029 ft | 411 kts | 117° |
| 2026-05-07 11:48 | 47.55371 | 10.30983 | 17040 ft | 410 kts | 129° |
| 2026-05-07 11:48 | 47.53368 | 10.33924 | 17016 ft | 408 kts | 141° |
| 2026-05-07 11:48 | 47.51117 | 10.36475 | 17021 ft | 407 kts | 145° |
| 2026-05-07 11:48 | 47.48801 | 10.38865 | 17029 ft | 408 kts | 147° |
| 2026-05-07 11:49 | 47.46447 | 10.41248 | 17013 ft | 406 kts | 147° |
| 2026-05-07 11:49 | 47.44136 | 10.43607 | 17043 ft | 407 kts | 146° |
| 2026-05-07 11:49 | 47.41795 | 10.46055 | 17019 ft | 409 kts | 145° |
| 2026-05-07 11:49 | 47.39471 | 10.48414 | 17030 ft | 406 kts | 148° |
| 2026-05-07 11:50 | 47.37058 | 10.50547 | 17013 ft | 406 kts | 152° |
| 2026-05-07 11:50 | 47.34584 | 10.52557 | 17013 ft | 405 kts | 152° |
| 2026-05-07 11:50 | 47.32206 | 10.54843 | 17014 ft | 407 kts | 141° |
| 2026-05-07 11:50 | 47.30402 | 10.58013 | 17008 ft | 410 kts | 120° |
| 2026-05-07 11:51 | 47.29425 | 10.62001 | 17004 ft | 411 kts | 101° |
| 2026-05-07 11:51 | 47.29272 | 10.66146 | 17016 ft | 411 kts | 86° |
| 2026-05-07 11:51 | 47.29575 | 10.70319 | 17045 ft | 412 kts | 83° |
| 2026-05-07 11:51 | 47.29919 | 10.74506 | 16990 ft | 413 kts | 83° |
| 2026-05-07 11:52 | 47.30253 | 10.78641 | 17056 ft | 410 kts | 83° |
| 2026-05-07 11:52 | 47.30579 | 10.82806 | 17034 ft | 412 kts | 83° |
| 2026-05-07 11:52 | 47.30902 | 10.87028 | 17033 ft | 411 kts | 84° |
| 2026-05-07 11:52 | 47.31217 | 10.91214 | 17056 ft | 411 kts | 84° |
| 2026-05-07 11:53 | 47.31527 | 10.95404 | 17039 ft | 412 kts | 84° |
| 2026-05-07 11:53 | 47.31832 | 10.99557 | 17049 ft | 412 kts | 84° |
| 2026-05-07 11:53 | 47.32142 | 11.03778 | 16866 ft | 420 kts | 84° |
| 2026-05-07 11:53 | 47.32455 | 11.08057 | 16579 ft | 418 kts | 84° |
| 2026-05-07 11:54 | 47.32767 | 11.12286 | 16229 ft | 411 kts | 84° |
| 2026-05-07 11:54 | 47.33072 | 11.16450 | 15538 ft | 408 kts | 84° |
| 2026-05-07 11:54 | 47.33371 | 11.20549 | 14795 ft | 407 kts | 84° |
| 2026-05-07 11:54 | 47.33668 | 11.24668 | 14027 ft | 405 kts | 84° |
| 2026-05-07 11:55 | 47.33964 | 11.28799 | 13349 ft | 401 kts | 84° |
| 2026-05-07 11:55 | 47.34256 | 11.32861 | 12893 ft | 392 kts | 84° |
| 2026-05-07 11:55 | 47.34531 | 11.36731 | 12703 ft | 376 kts | 84° |
| 2026-05-07 11:55 | 47.34797 | 11.40495 | 12555 ft | 360 kts | 84° |
| 2026-05-07 11:56 | 47.35050 | 11.44080 | 12404 ft | 347 kts | 84° |
| 2026-05-07 11:56 | 47.35294 | 11.47551 | 12210 ft | 335 kts | 84° |
| 2026-05-07 11:56 | 47.35530 | 11.50973 | 11773 ft | 333 kts | 84° |
| 2026-05-07 11:56 | 47.35760 | 11.54344 | 11263 ft | 327 kts | 84° |
| 2026-05-07 11:57 | 47.35981 | 11.57565 | 11018 ft | 309 kts | 83° |
| 2026-05-07 11:57 | 47.36195 | 11.60633 | 10916 ft | 289 kts | 83° |
| 2026-05-07 11:57 | 47.36391 | 11.63414 | 10796 ft | 258 kts | 82° |
| 2026-05-07 11:57 | 47.36566 | 11.65896 | 10698 ft | 228 kts | 83° |
| 2026-05-07 11:58 | 47.36720 | 11.68058 | 10588 ft | 200 kts | 84° |
| 2026-05-07 11:58 | 47.36851 | 11.69947 | 10479 ft | 170 kts | 85° |
| 2026-05-07 11:58 | 47.36961 | 11.71589 | 10319 ft | 153 kts | 85° |
| 2026-05-07 11:58 | 47.37072 | 11.73163 | 10289 ft | 158 kts | 85° |
| 2026-05-07 11:59 | 47.37193 | 11.74834 | 10257 ft | 167 kts | 85° |
| 2026-05-07 11:59 | 47.37309 | 11.76566 | 10088 ft | 168 kts | 86° |
| 2026-05-07 11:59 | 47.37414 | 11.78266 | 9868 ft | 163 kts | 85° |
| 2026-05-07 11:59 | 47.37472 | 11.79914 | 9693 ft | 159 kts | 95° |
| 2026-05-07 12:00 | 47.37098 | 11.81405 | 9549 ft | 157 kts | 129° |
| 2026-05-07 12:00 | 47.36254 | 11.82422 | 9551 ft | 160 kts | 149° |
| 2026-05-07 12:00 | 47.35178 | 11.82917 | 9540 ft | 164 kts | 180° |
| 2026-05-07 12:00 | 47.34114 | 11.82495 | 9555 ft | 158 kts | 211° |
| 2026-05-07 12:01 | 47.33253 | 11.81516 | 9499 ft | 156 kts | 230° |
| 2026-05-07 12:01 | 47.32811 | 11.80102 | 9221 ft | 151 kts | 263° |
| 2026-05-07 12:01 | 47.32873 | 11.78593 | 8954 ft | 145 kts | 281° |
| 2026-05-07 12:01 | 47.33262 | 11.77208 | 8739 ft | 151 kts | 307° |
| 2026-05-07 12:02 | 47.34125 | 11.76296 | 8548 ft | 152 kts | 325° |
| 2026-05-07 12:02 | 47.34815 | 11.75157 | 8261 ft | 148 kts | 287° |
| 2026-05-07 12:02 | 47.34881 | 11.73691 | 8085 ft | 144 kts | 264° |
| 2026-05-07 12:02 | 47.34742 | 11.72218 | 7839 ft | 146 kts | 257° |
| 2026-05-07 12:03 | 47.34451 | 11.70805 | 7600 ft | 143 kts | 251° |
| 2026-05-07 12:03 | 47.34086 | 11.69413 | 7403 ft | 146 kts | 248° |
| 2026-05-07 12:03 | 47.33702 | 11.68047 | 7185 ft | 146 kts | 248° |
| 2026-05-07 12:03 | 47.33317 | 11.66659 | 6957 ft | 144 kts | 249° |
| 2026-05-07 12:04 | 47.32946 | 11.65317 | 6730 ft | 141 kts | 249° |
| 2026-05-07 12:04 | 47.32569 | 11.63975 | 6516 ft | 142 kts | 248° |
| 2026-05-07 12:04 | 47.32186 | 11.62621 | 6299 ft | 143 kts | 248° |
| 2026-05-07 12:04 | 47.31802 | 11.61275 | 6070 ft | 142 kts | 248° |
| 2026-05-07 12:05 | 47.31425 | 11.59938 | 5863 ft | 142 kts | 249° |
| 2026-05-07 12:05 | 47.31055 | 11.58602 | 5638 ft | 141 kts | 249° |
| 2026-05-07 12:05 | 47.30673 | 11.57256 | 5417 ft | 141 kts | 248° |
| 2026-05-07 12:05 | 47.30294 | 11.55921 | 5204 ft | 142 kts | 249° |
| 2026-05-07 12:06 | 47.29918 | 11.54587 | 4984 ft | 142 kts | 249° |
| 2026-05-07 12:06 | 47.29540 | 11.53233 | 4769 ft | 142 kts | 250° |
| 2026-05-07 12:06 | 47.29165 | 11.51890 | 4539 ft | 141 kts | 249° |
| 2026-05-07 12:06 | 47.28795 | 11.50567 | 4319 ft | 139 kts | 249° |
| 2026-05-07 12:07 | 47.28428 | 11.49247 | 4105 ft | 139 kts | 249° |
| 2026-05-07 12:07 | 47.28059 | 11.47921 | 3885 ft | 139 kts | 250° |
| 2026-05-07 12:07 | 47.27689 | 11.46590 | 3664 ft | 140 kts | 250° |
| 2026-05-07 12:07 | 47.27317 | 11.45266 | 3451 ft | 143 kts | 250° |
| 2026-05-07 12:08 | 47.27011 | 11.43869 | 3201 ft | 143 kts | 262° |
| 2026-05-07 12:08 | 47.26854 | 11.42406 | 2924 ft | 143 kts | 264° |
| 2026-05-07 12:08 | 47.26742 | 11.40966 | 2709 ft | 142 kts | 267° |
| 2026-05-07 12:08 | 47.26621 | 11.39506 | 2482 ft | 145 kts | 262° |
| 2026-05-07 12:09 | 47.26418 | 11.38069 | 2281 ft | 143 kts | 262° |
| 2026-05-07 12:09 | 47.26258 | 11.36623 | 2083 ft | 141 kts | 262° |
| 2026-05-07 12:09 | 47.26110 | 11.35220 | 1913 ft | 131 kts | 262° |
| 2026-05-07 12:09 | 47.25987 | 11.34084 | 1922 ft | 91 kts | 259° |
| 2026-05-07 12:10 | 47.25910 | 11.33389 | 1939 ft | 39 kts | 260° |
| 2026-05-07 12:10 | 47.25882 | 11.33216 | 1937 ft | 12 kts | 229° |
| 2026-05-07 12:10 | 47.25854 | 11.33122 | 1935 ft | 10 kts | 323° |
| 2026-05-07 12:10 | 47.25888 | 11.33179 | 1936 ft | 8 kts | 83° |
| 2026-05-07 12:11 | 47.25900 | 11.33298 | 1939 ft | 18 kts | 80° |
| 2026-05-07 12:11 | 47.25931 | 11.33544 | 1938 ft | 24 kts | 80° |
| 2026-05-07 12:11 | 47.25867 | 11.33762 | 1932 ft | 25 kts | 124° |
| 2026-05-07 12:11 | 47.25772 | 11.33984 | 1925 ft | 26 kts | 102° |
| 2026-05-07 12:12 | 47.25789 | 11.34213 | 1920 ft | 21 kts | 81° |
| 2026-05-07 12:12 | 47.25812 | 11.34431 | 1917 ft | 21 kts | 81° |
| 2026-05-07 12:12 | 47.25836 | 11.34648 | 1915 ft | 22 kts | 81° |
| 2026-05-07 12:12 | 47.25854 | 11.34819 | 1914 ft | 13 kts | 81° |
| 2026-05-07 12:13 | 47.25863 | 11.34902 | 1913 ft | 2 kts | 86° |
| 2026-05-07 12:13 | 47.25850 | 11.34920 | 1913 ft | 3 kts | 158° |
| 2026-05-07 12:13 | 47.25822 | 11.34930 | 1913 ft | 2 kts | 169° |
| 2026-05-07 12:13 | 47.25812 | 11.34933 | 1913 ft | 0 kts | 170° |